sensor_id;sensor_type;location;lat;lon;timestamp;P1;durP1;ratioP1;P2;durP2;ratioP2
56201;SDS011;42117;50.360;3.508;2023-06-26T00:00:31;5.00;;;4.47;;
56201;SDS011;42117;50.360;3.508;2023-06-26T00:02:57;6.18;;;5.40;;
56201;SDS011;42117;50.360;3.508;2023-06-26T00:05:23;5.77;;;5.00;;
56201;SDS011;42117;50.360;3.508;2023-06-26T00:07:49;5.15;;;4.75;;
56201;SDS011;42117;50.360;3.508;2023-06-26T00:10:15;6.88;;;5.60;;
56201;SDS011;42117;50.360;3.508;2023-06-26T00:12:41;6.35;;;4.75;;
56201;SDS011;42117;50.360;3.508;2023-06-26T00:15:08;5.30;;;3.70;;
56201;SDS011;42117;50.360;3.508;2023-06-26T00:17:34;6.75;;;4.20;;
56201;SDS011;42117;50.360;3.508;2023-06-26T00:20:02;5.90;;;4.30;;
56201;SDS011;42117;50.360;3.508;2023-06-26T00:22:30;8.25;;;4.78;;
56201;SDS011;42117;50.360;3.508;2023-06-26T00:24:56;6.53;;;3.47;;
56201;SDS011;42117;50.360;3.508;2023-06-26T00:27:22;5.80;;;4.20;;
56201;SDS011;42117;50.360;3.508;2023-06-26T00:29:48;4.75;;;3.83;;
56201;SDS011;42117;50.360;3.508;2023-06-26T00:32:14;6.35;;;4.13;;
56201;SDS011;42117;50.360;3.508;2023-06-26T00:34:40;4.80;;;4.43;;
56201;SDS011;42117;50.360;3.508;2023-06-26T00:37:06;6.65;;;4.35;;
56201;SDS011;42117;50.360;3.508;2023-06-26T00:39:32;6.40;;;4.22;;
56201;SDS011;42117;50.360;3.508;2023-06-26T00:41:58;6.38;;;4.55;;
56201;SDS011;42117;50.360;3.508;2023-06-26T00:44:24;3.97;;;3.67;;
56201;SDS011;42117;50.360;3.508;2023-06-26T00:46:50;6.03;;;4.23;;
56201;SDS011;42117;50.360;3.508;2023-06-26T00:49:16;8.40;;;4.50;;
56201;SDS011;42117;50.360;3.508;2023-06-26T00:51:43;5.35;;;4.18;;
56201;SDS011;42117;50.360;3.508;2023-06-26T00:54:09;7.32;;;4.65;;
56201;SDS011;42117;50.360;3.508;2023-06-26T00:56:35;6.65;;;4.50;;
56201;SDS011;42117;50.360;3.508;2023-06-26T00:59:01;5.85;;;4.60;;
56201;SDS011;42117;50.360;3.508;2023-06-26T01:01:27;11.40;;;4.97;;
56201;SDS011;42117;50.360;3.508;2023-06-26T01:03:54;6.50;;;4.70;;
56201;SDS011;42117;50.360;3.508;2023-06-26T01:06:22;4.30;;;3.88;;
56201;SDS011;42117;50.360;3.508;2023-06-26T01:08:49;6.32;;;4.78;;
56201;SDS011;42117;50.360;3.508;2023-06-26T01:11:16;4.88;;;4.40;;
56201;SDS011;42117;50.360;3.508;2023-06-26T01:13:42;8.35;;;4.57;;
56201;SDS011;42117;50.360;3.508;2023-06-26T01:16:11;7.78;;;4.88;;
56201;SDS011;42117;50.360;3.508;2023-06-26T01:18:40;7.53;;;4.60;;
56201;SDS011;42117;50.360;3.508;2023-06-26T01:21:08;3.88;;;3.50;;
56201;SDS011;42117;50.360;3.508;2023-06-26T01:23:39;8.20;;;4.60;;
56201;SDS011;42117;50.360;3.508;2023-06-26T01:26:16;7.63;;;4.30;;
56201;SDS011;42117;50.360;3.508;2023-06-26T01:28:43;4.18;;;3.90;;
56201;SDS011;42117;50.360;3.508;2023-06-26T01:31:10;3.75;;;3.55;;
56201;SDS011;42117;50.360;3.508;2023-06-26T01:33:37;4.95;;;4.15;;
56201;SDS011;42117;50.360;3.508;2023-06-26T01:36:03;8.93;;;4.97;;
56201;SDS011;42117;50.360;3.508;2023-06-26T01:38:30;8.07;;;4.60;;
56201;SDS011;42117;50.360;3.508;2023-06-26T01:40:56;7.10;;;4.28;;
56201;SDS011;42117;50.360;3.508;2023-06-26T01:46:22;5.47;;;4.22;;
56201;SDS011;42117;50.360;3.508;2023-06-26T01:49:12;8.07;;;4.22;;
56201;SDS011;42117;50.360;3.508;2023-06-26T01:51:38;7.20;;;3.72;;
56201;SDS011;42117;50.360;3.508;2023-06-26T01:54:07;7.97;;;4.00;;
56201;SDS011;42117;50.360;3.508;2023-06-26T01:56:34;9.10;;;4.57;;
56201;SDS011;42117;50.360;3.508;2023-06-26T01:59:00;6.55;;;4.63;;
56201;SDS011;42117;50.360;3.508;2023-06-26T02:01:27;4.32;;;3.95;;
56201;SDS011;42117;50.360;3.508;2023-06-26T02:03:53;5.78;;;4.00;;
56201;SDS011;42117;50.360;3.508;2023-06-26T02:06:19;3.90;;;3.60;;
56201;SDS011;42117;50.360;3.508;2023-06-26T02:08:45;8.10;;;4.50;;
56201;SDS011;42117;50.360;3.508;2023-06-26T02:11:11;9.88;;;4.80;;
56201;SDS011;42117;50.360;3.508;2023-06-26T02:13:37;6.88;;;4.65;;
56201;SDS011;42117;50.360;3.508;2023-06-26T02:16:03;5.82;;;4.70;;
56201;SDS011;42117;50.360;3.508;2023-06-26T02:18:29;5.03;;;4.03;;
56201;SDS011;42117;50.360;3.508;2023-06-26T02:20:55;6.30;;;5.00;;
56201;SDS011;42117;50.360;3.508;2023-06-26T02:23:21;8.73;;;5.57;;
56201;SDS011;42117;50.360;3.508;2023-06-26T02:25:47;12.83;;;5.53;;
56201;SDS011;42117;50.360;3.508;2023-06-26T02:28:13;15.13;;;5.70;;
56201;SDS011;42117;50.360;3.508;2023-06-26T02:30:39;13.90;;;5.93;;
56201;SDS011;42117;50.360;3.508;2023-06-26T02:33:05;12.68;;;5.03;;
56201;SDS011;42117;50.360;3.508;2023-06-26T02:35:31;7.50;;;4.90;;
56201;SDS011;42117;50.360;3.508;2023-06-26T02:37:58;16.33;;;6.00;;
56201;SDS011;42117;50.360;3.508;2023-06-26T02:40:24;9.10;;;4.32;;
56201;SDS011;42117;50.360;3.508;2023-06-26T02:42:50;12.30;;;5.85;;
56201;SDS011;42117;50.360;3.508;2023-06-26T02:45:16;4.43;;;3.95;;
56201;SDS011;42117;50.360;3.508;2023-06-26T02:47:42;12.27;;;5.15;;
56201;SDS011;42117;50.360;3.508;2023-06-26T02:50:08;12.77;;;5.13;;
56201;SDS011;42117;50.360;3.508;2023-06-26T02:52:34;15.95;;;5.65;;
56201;SDS011;42117;50.360;3.508;2023-06-26T02:55:00;13.48;;;5.15;;
56201;SDS011;42117;50.360;3.508;2023-06-26T02:57:26;10.07;;;5.13;;
56201;SDS011;42117;50.360;3.508;2023-06-26T02:59:52;11.83;;;5.63;;
56201;SDS011;42117;50.360;3.508;2023-06-26T03:02:18;15.20;;;6.03;;
56201;SDS011;42117;50.360;3.508;2023-06-26T03:04:44;12.82;;;6.10;;
56201;SDS011;42117;50.360;3.508;2023-06-26T03:07:10;11.13;;;5.20;;
56201;SDS011;42117;50.360;3.508;2023-06-26T03:09:36;8.32;;;5.35;;
56201;SDS011;42117;50.360;3.508;2023-06-26T03:12:02;10.05;;;5.20;;
56201;SDS011;42117;50.360;3.508;2023-06-26T03:14:28;12.02;;;5.05;;
56201;SDS011;42117;50.360;3.508;2023-06-26T03:16:56;8.27;;;4.95;;
56201;SDS011;42117;50.360;3.508;2023-06-26T03:19:24;13.80;;;5.53;;
56201;SDS011;42117;50.360;3.508;2023-06-26T03:21:50;10.07;;;5.93;;
56201;SDS011;42117;50.360;3.508;2023-06-26T03:24:16;6.50;;;4.55;;
56201;SDS011;42117;50.360;3.508;2023-06-26T03:26:42;9.98;;;5.30;;
56201;SDS011;42117;50.360;3.508;2023-06-26T03:29:08;11.57;;;4.97;;
56201;SDS011;42117;50.360;3.508;2023-06-26T03:31:34;15.70;;;5.65;;
56201;SDS011;42117;50.360;3.508;2023-06-26T03:34:00;11.43;;;6.30;;
56201;SDS011;42117;50.360;3.508;2023-06-26T03:36:26;7.13;;;6.50;;
56201;SDS011;42117;50.360;3.508;2023-06-26T03:38:52;8.02;;;6.07;;
56201;SDS011;42117;50.360;3.508;2023-06-26T03:41:21;17.35;;;6.93;;
56201;SDS011;42117;50.360;3.508;2023-06-26T03:43:47;12.48;;;8.50;;
56201;SDS011;42117;50.360;3.508;2023-06-26T03:46:13;14.63;;;6.82;;
56201;SDS011;42117;50.360;3.508;2023-06-26T03:48:39;8.75;;;7.15;;
56201;SDS011;42117;50.360;3.508;2023-06-26T03:51:06;9.27;;;6.60;;
56201;SDS011;42117;50.360;3.508;2023-06-26T03:53:32;14.70;;;7.55;;
56201;SDS011;42117;50.360;3.508;2023-06-26T03:55:58;9.93;;;6.87;;
56201;SDS011;42117;50.360;3.508;2023-06-26T03:58:24;11.90;;;5.77;;
56201;SDS011;42117;50.360;3.508;2023-06-26T04:00:50;17.02;;;7.05;;
56201;SDS011;42117;50.360;3.508;2023-06-26T04:03:16;19.40;;;7.30;;
56201;SDS011;42117;50.360;3.508;2023-06-26T04:05:43;5.57;;;4.88;;
56201;SDS011;42117;50.360;3.508;2023-06-26T04:08:09;12.43;;;5.33;;
56201;SDS011;42117;50.360;3.508;2023-06-26T04:10:35;10.70;;;4.03;;
56201;SDS011;42117;50.360;3.508;2023-06-26T04:13:03;16.60;;;5.55;;
56201;SDS011;42117;50.360;3.508;2023-06-26T04:15:29;4.43;;;3.50;;
56201;SDS011;42117;50.360;3.508;2023-06-26T04:17:56;9.07;;;5.20;;
56201;SDS011;42117;50.360;3.508;2023-06-26T04:20:21;13.52;;;4.43;;
56201;SDS011;42117;50.360;3.508;2023-06-26T04:22:47;9.20;;;4.07;;
56201;SDS011;42117;50.360;3.508;2023-06-26T04:25:13;11.32;;;3.83;;
56201;SDS011;42117;50.360;3.508;2023-06-26T04:27:39;14.52;;;4.65;;
56201;SDS011;42117;50.360;3.508;2023-06-26T04:30:06;7.13;;;3.70;;
56201;SDS011;42117;50.360;3.508;2023-06-26T04:32:32;12.95;;;3.78;;
56201;SDS011;42117;50.360;3.508;2023-06-26T04:34:58;10.27;;;3.80;;
56201;SDS011;42117;50.360;3.508;2023-06-26T04:37:24;5.00;;;3.50;;
56201;SDS011;42117;50.360;3.508;2023-06-26T04:39:50;8.17;;;3.40;;
56201;SDS011;42117;50.360;3.508;2023-06-26T04:42:16;5.00;;;3.00;;
56201;SDS011;42117;50.360;3.508;2023-06-26T04:44:42;8.07;;;4.03;;
56201;SDS011;42117;50.360;3.508;2023-06-26T04:47:08;16.05;;;4.35;;
56201;SDS011;42117;50.360;3.508;2023-06-26T04:49:34;12.87;;;3.83;;
56201;SDS011;42117;50.360;3.508;2023-06-26T04:52:00;12.90;;;3.93;;
56201;SDS011;42117;50.360;3.508;2023-06-26T04:54:27;7.30;;;3.07;;
56201;SDS011;42117;50.360;3.508;2023-06-26T04:56:54;8.83;;;3.13;;
56201;SDS011;42117;50.360;3.508;2023-06-26T04:59:20;11.95;;;3.80;;
56201;SDS011;42117;50.360;3.508;2023-06-26T05:01:46;8.90;;;2.70;;
56201;SDS011;42117;50.360;3.508;2023-06-26T05:04:13;10.98;;;3.28;;
56201;SDS011;42117;50.360;3.508;2023-06-26T05:06:40;7.47;;;3.30;;
56201;SDS011;42117;50.360;3.508;2023-06-26T05:09:06;7.82;;;3.50;;
56201;SDS011;42117;50.360;3.508;2023-06-26T05:11:32;9.38;;;4.43;;
56201;SDS011;42117;50.360;3.508;2023-06-26T05:13:58;8.32;;;3.85;;
56201;SDS011;42117;50.360;3.508;2023-06-26T05:16:24;12.10;;;3.92;;
56201;SDS011;42117;50.360;3.508;2023-06-26T05:18:50;9.57;;;3.97;;
56201;SDS011;42117;50.360;3.508;2023-06-26T05:21:17;8.95;;;3.50;;
56201;SDS011;42117;50.360;3.508;2023-06-26T05:23:43;15.38;;;3.75;;
56201;SDS011;42117;50.360;3.508;2023-06-26T05:26:10;6.55;;;3.50;;
56201;SDS011;42117;50.360;3.508;2023-06-26T05:28:38;7.83;;;3.20;;
56201;SDS011;42117;50.360;3.508;2023-06-26T05:31:04;3.70;;;3.10;;
56201;SDS011;42117;50.360;3.508;2023-06-26T05:33:30;13.68;;;4.05;;
56201;SDS011;42117;50.360;3.508;2023-06-26T05:35:57;13.57;;;4.40;;
56201;SDS011;42117;50.360;3.508;2023-06-26T05:38:24;11.13;;;4.07;;
56201;SDS011;42117;50.360;3.508;2023-06-26T05:40:50;6.70;;;3.75;;
56201;SDS011;42117;50.360;3.508;2023-06-26T05:43:16;12.40;;;4.55;;
56201;SDS011;42117;50.360;3.508;2023-06-26T05:45:46;4.00;;;3.13;;
56201;SDS011;42117;50.360;3.508;2023-06-26T05:48:12;15.60;;;4.40;;
56201;SDS011;42117;50.360;3.508;2023-06-26T05:50:38;11.10;;;3.80;;
56201;SDS011;42117;50.360;3.508;2023-06-26T05:53:06;11.95;;;4.28;;
56201;SDS011;42117;50.360;3.508;2023-06-26T05:55:33;11.38;;;2.80;;
56201;SDS011;42117;50.360;3.508;2023-06-26T05:57:59;7.63;;;2.92;;
56201;SDS011;42117;50.360;3.508;2023-06-26T06:00:26;7.17;;;2.73;;
56201;SDS011;42117;50.360;3.508;2023-06-26T06:02:52;5.75;;;3.10;;
56201;SDS011;42117;50.360;3.508;2023-06-26T06:05:19;13.60;;;3.65;;
56201;SDS011;42117;50.360;3.508;2023-06-26T06:07:46;3.78;;;2.63;;
56201;SDS011;42117;50.360;3.508;2023-06-26T06:10:12;4.47;;;2.67;;
56201;SDS011;42117;50.360;3.508;2023-06-26T06:12:38;10.65;;;2.60;;
56201;SDS011;42117;50.360;3.508;2023-06-26T06:15:05;6.40;;;3.47;;
56201;SDS011;42117;50.360;3.508;2023-06-26T06:17:31;10.30;;;2.83;;
56201;SDS011;42117;50.360;3.508;2023-06-26T06:19:57;7.82;;;2.63;;
56201;SDS011;42117;50.360;3.508;2023-06-26T06:22:23;6.57;;;2.55;;
56201;SDS011;42117;50.360;3.508;2023-06-26T06:24:50;15.70;;;3.65;;
56201;SDS011;42117;50.360;3.508;2023-06-26T06:27:16;6.22;;;2.85;;
56201;SDS011;42117;50.360;3.508;2023-06-26T06:29:42;6.93;;;3.05;;
56201;SDS011;42117;50.360;3.508;2023-06-26T06:32:08;6.10;;;3.00;;
56201;SDS011;42117;50.360;3.508;2023-06-26T06:34:34;10.82;;;3.00;;
56201;SDS011;42117;50.360;3.508;2023-06-26T06:37:01;6.57;;;3.25;;
56201;SDS011;42117;50.360;3.508;2023-06-26T06:39:27;4.57;;;2.95;;
56201;SDS011;42117;50.360;3.508;2023-06-26T06:41:53;12.45;;;3.20;;
56201;SDS011;42117;50.360;3.508;2023-06-26T06:44:19;6.25;;;3.38;;
56201;SDS011;42117;50.360;3.508;2023-06-26T06:46:45;6.72;;;3.20;;
56201;SDS011;42117;50.360;3.508;2023-06-26T06:49:11;8.98;;;3.80;;
56201;SDS011;42117;50.360;3.508;2023-06-26T06:51:37;6.87;;;3.60;;
56201;SDS011;42117;50.360;3.508;2023-06-26T06:54:03;3.20;;;2.60;;
56201;SDS011;42117;50.360;3.508;2023-06-26T06:56:29;10.43;;;3.00;;
56201;SDS011;42117;50.360;3.508;2023-06-26T06:58:55;6.70;;;2.60;;
56201;SDS011;42117;50.360;3.508;2023-06-26T07:01:21;5.22;;;2.70;;
56201;SDS011;42117;50.360;3.508;2023-06-26T07:03:47;8.07;;;2.97;;
56201;SDS011;42117;50.360;3.508;2023-06-26T07:06:13;5.57;;;2.63;;
56201;SDS011;42117;50.360;3.508;2023-06-26T07:08:39;6.97;;;3.35;;
56201;SDS011;42117;50.360;3.508;2023-06-26T07:11:05;7.83;;;3.10;;
56201;SDS011;42117;50.360;3.508;2023-06-26T07:13:31;4.82;;;3.35;;
56201;SDS011;42117;50.360;3.508;2023-06-26T07:15:57;9.35;;;3.92;;
56201;SDS011;42117;50.360;3.508;2023-06-26T07:18:23;3.25;;;2.90;;
56201;SDS011;42117;50.360;3.508;2023-06-26T07:20:49;6.03;;;3.15;;
56201;SDS011;42117;50.360;3.508;2023-06-26T07:23:15;6.90;;;3.70;;
56201;SDS011;42117;50.360;3.508;2023-06-26T07:25:41;7.65;;;3.47;;
56201;SDS011;42117;50.360;3.508;2023-06-26T07:28:11;7.20;;;3.17;;
56201;SDS011;42117;50.360;3.508;2023-06-26T07:30:37;4.20;;;3.33;;
56201;SDS011;42117;50.360;3.508;2023-06-26T07:33:03;6.07;;;3.63;;
56201;SDS011;42117;50.360;3.508;2023-06-26T07:35:30;3.20;;;3.00;;
56201;SDS011;42117;50.360;3.508;2023-06-26T07:37:56;5.00;;;2.70;;
56201;SDS011;42117;50.360;3.508;2023-06-26T07:40:22;5.80;;;3.08;;
56201;SDS011;42117;50.360;3.508;2023-06-26T07:42:48;5.55;;;2.75;;
56201;SDS011;42117;50.360;3.508;2023-06-26T07:45:15;9.35;;;3.03;;
56201;SDS011;42117;50.360;3.508;2023-06-26T07:47:41;6.65;;;2.67;;
56201;SDS011;42117;50.360;3.508;2023-06-26T07:50:07;4.65;;;2.92;;
56201;SDS011;42117;50.360;3.508;2023-06-26T07:52:33;7.50;;;3.25;;
56201;SDS011;42117;50.360;3.508;2023-06-26T07:54:59;7.35;;;3.17;;
56201;SDS011;42117;50.360;3.508;2023-06-26T07:57:25;2.90;;;2.60;;
56201;SDS011;42117;50.360;3.508;2023-06-26T07:59:51;2.65;;;2.53;;
56201;SDS011;42117;50.360;3.508;2023-06-26T08:02:17;4.95;;;3.05;;
56201;SDS011;42117;50.360;3.508;2023-06-26T08:04:44;7.20;;;3.05;;
56201;SDS011;42117;50.360;3.508;2023-06-26T08:07:10;5.20;;;2.92;;
56201;SDS011;42117;50.360;3.508;2023-06-26T08:09:36;13.47;;;4.03;;
56201;SDS011;42117;50.360;3.508;2023-06-26T08:12:02;5.50;;;3.70;;
56201;SDS011;42117;50.360;3.508;2023-06-26T08:14:28;3.15;;;2.88;;
56201;SDS011;42117;50.360;3.508;2023-06-26T08:16:54;3.67;;;3.38;;
56201;SDS011;42117;50.360;3.508;2023-06-26T08:19:20;4.10;;;2.85;;
56201;SDS011;42117;50.360;3.508;2023-06-26T08:21:46;4.35;;;2.97;;
56201;SDS011;42117;50.360;3.508;2023-06-26T08:24:12;7.40;;;3.40;;
56201;SDS011;42117;50.360;3.508;2023-06-26T08:26:41;5.55;;;3.22;;
56201;SDS011;42117;50.360;3.508;2023-06-26T08:29:07;4.70;;;3.03;;
56201;SDS011;42117;50.360;3.508;2023-06-26T08:31:33;5.07;;;3.10;;
56201;SDS011;42117;50.360;3.508;2023-06-26T08:34:00;5.28;;;2.90;;
56201;SDS011;42117;50.360;3.508;2023-06-26T08:36:26;3.00;;;2.90;;
56201;SDS011;42117;50.360;3.508;2023-06-26T08:38:52;4.28;;;3.45;;
56201;SDS011;42117;50.360;3.508;2023-06-26T08:41:18;3.65;;;2.85;;
56201;SDS011;42117;50.360;3.508;2023-06-26T08:43:44;8.52;;;3.50;;
56201;SDS011;42117;50.360;3.508;2023-06-26T08:46:11;9.65;;;4.50;;
56201;SDS011;42117;50.360;3.508;2023-06-26T08:48:37;3.95;;;2.85;;
56201;SDS011;42117;50.360;3.508;2023-06-26T08:51:11;2.80;;;2.70;;
56201;SDS011;42117;50.360;3.508;2023-06-26T08:56:09;7.82;;;3.42;;
56201;SDS011;42117;50.360;3.508;2023-06-26T08:58:36;5.90;;;3.20;;
56201;SDS011;42117;50.360;3.508;2023-06-26T09:01:04;3.00;;;2.80;;
56201;SDS011;42117;50.360;3.508;2023-06-26T09:03:31;3.90;;;3.40;;
56201;SDS011;42117;50.360;3.508;2023-06-26T09:05:58;2.70;;;2.60;;
56201;SDS011;42117;50.360;3.508;2023-06-26T09:08:24;6.43;;;3.67;;
56201;SDS011;42117;50.360;3.508;2023-06-26T09:10:50;3.35;;;3.15;;
56201;SDS011;42117;50.360;3.508;2023-06-26T09:13:17;3.55;;;2.80;;
56201;SDS011;42117;50.360;3.508;2023-06-26T09:15:44;2.85;;;2.70;;
56201;SDS011;42117;50.360;3.508;2023-06-26T09:18:10;4.45;;;3.00;;
56201;SDS011;42117;50.360;3.508;2023-06-26T09:20:36;3.25;;;3.05;;
56201;SDS011;42117;50.360;3.508;2023-06-26T09:23:03;3.85;;;2.97;;
56201;SDS011;42117;50.360;3.508;2023-06-26T09:25:30;6.38;;;3.42;;
56201;SDS011;42117;50.360;3.508;2023-06-26T09:27:56;3.33;;;3.05;;
56201;SDS011;42117;50.360;3.508;2023-06-26T09:30:22;7.03;;;3.22;;
56201;SDS011;42117;50.360;3.508;2023-06-26T09:32:48;4.82;;;2.90;;
56201;SDS011;42117;50.360;3.508;2023-06-26T09:35:19;3.53;;;3.08;;
56201;SDS011;42117;50.360;3.508;2023-06-26T09:37:45;5.97;;;3.10;;
56201;SDS011;42117;50.360;3.508;2023-06-26T09:40:13;2.90;;;2.60;;
56201;SDS011;42117;50.360;3.508;2023-06-26T09:42:39;5.18;;;2.80;;
56201;SDS011;42117;50.360;3.508;2023-06-26T09:45:05;3.10;;;2.80;;
56201;SDS011;42117;50.360;3.508;2023-06-26T09:47:34;3.28;;;2.83;;
56201;SDS011;42117;50.360;3.508;2023-06-26T09:50:02;2.70;;;2.50;;
56201;SDS011;42117;50.360;3.508;2023-06-26T09:52:29;3.17;;;2.88;;
56201;SDS011;42117;50.360;3.508;2023-06-26T09:55:08;12.00;;;2.80;;
56201;SDS011;42117;50.360;3.508;2023-06-26T09:57:34;2.70;;;2.50;;
56201;SDS011;42117;50.360;3.508;2023-06-26T10:00:04;3.00;;;2.40;;
56201;SDS011;42117;50.360;3.508;2023-06-26T10:02:30;4.03;;;2.55;;
56201;SDS011;42117;50.360;3.508;2023-06-26T10:04:56;4.18;;;2.78;;
56201;SDS011;42117;50.360;3.508;2023-06-26T10:07:22;6.00;;;2.72;;
56201;SDS011;42117;50.360;3.508;2023-06-26T10:09:49;5.07;;;2.97;;
56201;SDS011;42117;50.360;3.508;2023-06-26T10:12:20;3.00;;;2.80;;
56201;SDS011;42117;50.360;3.508;2023-06-26T10:14:48;3.20;;;3.03;;
56201;SDS011;42117;50.360;3.508;2023-06-26T10:17:19;3.67;;;3.53;;
56201;SDS011;42117;50.360;3.508;2023-06-26T10:19:46;4.25;;;3.17;;
56201;SDS011;42117;50.360;3.508;2023-06-26T10:22:14;4.43;;;3.75;;
56201;SDS011;42117;50.360;3.508;2023-06-26T10:24:41;3.70;;;3.30;;
56201;SDS011;42117;50.360;3.508;2023-06-26T10:27:13;4.45;;;3.20;;
56201;SDS011;42117;50.360;3.508;2023-06-26T10:29:40;5.17;;;3.20;;
56201;SDS011;42117;50.360;3.508;2023-06-26T10:32:07;3.42;;;3.22;;
56201;SDS011;42117;50.360;3.508;2023-06-26T10:34:34;3.20;;;3.00;;
56201;SDS011;42117;50.360;3.508;2023-06-26T10:37:01;3.70;;;3.40;;
56201;SDS011;42117;50.360;3.508;2023-06-26T10:39:32;4.50;;;4.00;;
56201;SDS011;42117;50.360;3.508;2023-06-26T10:42:12;4.05;;;2.85;;
56201;SDS011;42117;50.360;3.508;2023-06-26T10:44:40;4.10;;;3.80;;
56201;SDS011;42117;50.360;3.508;2023-06-26T10:47:10;3.00;;;2.80;;
56201;SDS011;42117;50.360;3.508;2023-06-26T10:49:36;3.93;;;3.60;;
56201;SDS011;42117;50.360;3.508;2023-06-26T10:52:04;3.17;;;2.97;;
56201;SDS011;42117;50.360;3.508;2023-06-26T10:54:31;4.45;;;3.00;;
56201;SDS011;42117;50.360;3.508;2023-06-26T10:56:58;4.85;;;3.45;;
56201;SDS011;42117;50.360;3.508;2023-06-26T10:59:28;4.90;;;3.38;;
56201;SDS011;42117;50.360;3.508;2023-06-26T11:01:55;3.00;;;2.90;;
56201;SDS011;42117;50.360;3.508;2023-06-26T11:09:57;3.13;;;2.92;;
56201;SDS011;42117;50.360;3.508;2023-06-26T11:12:37;3.87;;;3.57;;
56201;SDS011;42117;50.360;3.508;2023-06-26T11:15:13;3.28;;;3.10;;
56201;SDS011;42117;50.360;3.508;2023-06-26T11:17:40;3.00;;;2.90;;
56201;SDS011;42117;50.360;3.508;2023-06-26T11:20:06;3.20;;;3.10;;
56201;SDS011;42117;50.360;3.508;2023-06-26T11:22:34;3.65;;;3.35;;
56201;SDS011;42117;50.360;3.508;2023-06-26T11:25:01;7.73;;;4.10;;
56201;SDS011;42117;50.360;3.508;2023-06-26T11:27:38;6.00;;;3.65;;
56201;SDS011;42117;50.360;3.508;2023-06-26T11:30:04;3.60;;;3.50;;
56201;SDS011;42117;50.360;3.508;2023-06-26T11:32:31;4.03;;;3.47;;
56201;SDS011;42117;50.360;3.508;2023-06-26T11:35:00;3.95;;;3.75;;
56201;SDS011;42117;50.360;3.508;2023-06-26T11:37:26;4.15;;;3.30;;
56201;SDS011;42117;50.360;3.508;2023-06-26T11:39:52;5.05;;;3.08;;
56201;SDS011;42117;50.360;3.508;2023-06-26T11:42:19;3.42;;;3.17;;
56201;SDS011;42117;50.360;3.508;2023-06-26T11:44:46;3.80;;;3.50;;
56201;SDS011;42117;50.360;3.508;2023-06-26T11:47:13;4.20;;;3.65;;
56201;SDS011;42117;50.360;3.508;2023-06-26T11:49:41;3.72;;;3.53;;
56201;SDS011;42117;50.360;3.508;2023-06-26T11:52:07;5.00;;;2.97;;
56201;SDS011;42117;50.360;3.508;2023-06-26T11:54:33;4.40;;;3.50;;
56201;SDS011;42117;50.360;3.508;2023-06-26T11:56:59;4.28;;;3.63;;
56201;SDS011;42117;50.360;3.508;2023-06-26T11:59:36;3.85;;;3.53;;
56201;SDS011;42117;50.360;3.508;2023-06-26T12:02:06;4.00;;;3.70;;
56201;SDS011;42117;50.360;3.508;2023-06-26T12:04:32;4.05;;;3.78;;
56201;SDS011;42117;50.360;3.508;2023-06-26T12:07:00;3.15;;;2.95;;
56201;SDS011;42117;50.360;3.508;2023-06-26T12:09:29;3.93;;;3.40;;
56201;SDS011;42117;50.360;3.508;2023-06-26T12:11:55;5.53;;;3.67;;
56201;SDS011;42117;50.360;3.508;2023-06-26T12:14:22;3.78;;;3.58;;
56201;SDS011;42117;50.360;3.508;2023-06-26T12:16:48;3.58;;;3.40;;
56201;SDS011;42117;50.360;3.508;2023-06-26T12:19:14;7.57;;;3.35;;
56201;SDS011;42117;50.360;3.508;2023-06-26T12:24:09;6.80;;;3.40;;
56201;SDS011;42117;50.360;3.508;2023-06-26T12:26:36;3.42;;;3.33;;
56201;SDS011;42117;50.360;3.508;2023-06-26T12:29:05;2.97;;;2.88;;
56201;SDS011;42117;50.360;3.508;2023-06-26T12:31:32;5.22;;;3.10;;
56201;SDS011;42117;50.360;3.508;2023-06-26T12:33:58;4.22;;;3.30;;
56201;SDS011;42117;50.360;3.508;2023-06-26T12:36:24;5.75;;;3.42;;
56201;SDS011;42117;50.360;3.508;2023-06-26T12:38:53;3.20;;;3.00;;
56201;SDS011;42117;50.360;3.508;2023-06-26T12:41:20;3.70;;;3.25;;
56201;SDS011;42117;50.360;3.508;2023-06-26T12:43:49;3.08;;;2.80;;
56201;SDS011;42117;50.360;3.508;2023-06-26T12:46:21;3.33;;;3.00;;
56201;SDS011;42117;50.360;3.508;2023-06-26T12:48:58;2.80;;;2.70;;
56201;SDS011;42117;50.360;3.508;2023-06-26T12:51:24;3.10;;;2.45;;
56201;SDS011;42117;50.360;3.508;2023-06-26T12:53:52;4.80;;;2.78;;
56201;SDS011;42117;50.360;3.508;2023-06-26T12:56:18;2.97;;;2.80;;
56201;SDS011;42117;50.360;3.508;2023-06-26T12:58:45;2.90;;;2.70;;
56201;SDS011;42117;50.360;3.508;2023-06-26T13:01:11;3.25;;;3.03;;
56201;SDS011;42117;50.360;3.508;2023-06-26T13:03:41;2.80;;;2.70;;
56201;SDS011;42117;50.360;3.508;2023-06-26T13:06:07;3.13;;;2.80;;
56201;SDS011;42117;50.360;3.508;2023-06-26T13:08:33;11.07;;;4.00;;
56201;SDS011;42117;50.360;3.508;2023-06-26T13:10:59;6.10;;;3.50;;
56201;SDS011;42117;50.360;3.508;2023-06-26T13:13:25;3.60;;;2.30;;
56201;SDS011;42117;50.360;3.508;2023-06-26T13:15:52;5.60;;;2.90;;
56201;SDS011;42117;50.360;3.508;2023-06-26T13:18:18;7.88;;;3.60;;
56201;SDS011;42117;50.360;3.508;2023-06-26T13:20:46;2.83;;;2.38;;
56201;SDS011;42117;50.360;3.508;2023-06-26T13:23:12;5.00;;;2.90;;
56201;SDS011;42117;50.360;3.508;2023-06-26T13:25:38;3.40;;;3.10;;
56201;SDS011;42117;50.360;3.508;2023-06-26T13:28:04;2.80;;;2.60;;
56201;SDS011;42117;50.360;3.508;2023-06-26T13:30:30;7.15;;;3.10;;
56201;SDS011;42117;50.360;3.508;2023-06-26T13:32:56;3.45;;;3.15;;
56201;SDS011;42117;50.360;3.508;2023-06-26T13:35:22;4.97;;;2.77;;
56201;SDS011;42117;50.360;3.508;2023-06-26T13:37:48;2.60;;;2.50;;
56201;SDS011;42117;50.360;3.508;2023-06-26T13:40:14;2.70;;;2.60;;
56201;SDS011;42117;50.360;3.508;2023-06-26T13:42:40;3.10;;;2.90;;
56201;SDS011;42117;50.360;3.508;2023-06-26T13:45:07;3.30;;;3.10;;
56201;SDS011;42117;50.360;3.508;2023-06-26T13:47:33;2.93;;;2.83;;
56201;SDS011;42117;50.360;3.508;2023-06-26T13:49:59;2.75;;;2.55;;
56201;SDS011;42117;50.360;3.508;2023-06-26T13:52:25;4.00;;;3.00;;
56201;SDS011;42117;50.360;3.508;2023-06-26T13:54:51;2.88;;;2.63;;
56201;SDS011;42117;50.360;3.508;2023-06-26T13:57:17;8.13;;;2.88;;
56201;SDS011;42117;50.360;3.508;2023-06-26T13:59:47;4.10;;;3.03;;
56201;SDS011;42117;50.360;3.508;2023-06-26T14:02:13;2.80;;;2.58;;
56201;SDS011;42117;50.360;3.508;2023-06-26T14:04:39;2.67;;;2.50;;
56201;SDS011;42117;50.360;3.508;2023-06-26T14:07:06;2.97;;;2.53;;
56201;SDS011;42117;50.360;3.508;2023-06-26T14:09:32;2.88;;;2.50;;
56201;SDS011;42117;50.360;3.508;2023-06-26T14:11:58;4.60;;;2.30;;
56201;SDS011;42117;50.360;3.508;2023-06-26T14:14:24;2.90;;;2.67;;
56201;SDS011;42117;50.360;3.508;2023-06-26T14:16:50;2.40;;;2.30;;
56201;SDS011;42117;50.360;3.508;2023-06-26T14:19:16;2.40;;;2.20;;
56201;SDS011;42117;50.360;3.508;2023-06-26T14:21:42;2.67;;;2.47;;
56201;SDS011;42117;50.360;3.508;2023-06-26T14:24:08;4.50;;;2.20;;
56201;SDS011;42117;50.360;3.508;2023-06-26T14:26:34;2.30;;;2.10;;
56201;SDS011;42117;50.360;3.508;2023-06-26T14:29:01;3.23;;;2.20;;
56201;SDS011;42117;50.360;3.508;2023-06-26T14:31:27;2.30;;;2.20;;
56201;SDS011;42117;50.360;3.508;2023-06-26T14:33:54;3.22;;;3.00;;
56201;SDS011;42117;50.360;3.508;2023-06-26T14:36:20;3.97;;;2.95;;
56201;SDS011;42117;50.360;3.508;2023-06-26T14:38:46;2.63;;;2.53;;
56201;SDS011;42117;50.360;3.508;2023-06-26T14:41:12;3.67;;;2.80;;
56201;SDS011;42117;50.360;3.508;2023-06-26T14:43:38;2.65;;;2.45;;
56201;SDS011;42117;50.360;3.508;2023-06-26T14:46:04;2.38;;;2.28;;
56201;SDS011;42117;50.360;3.508;2023-06-26T14:48:30;2.35;;;2.28;;
56201;SDS011;42117;50.360;3.508;2023-06-26T14:50:56;3.30;;;2.60;;
56201;SDS011;42117;50.360;3.508;2023-06-26T14:53:22;2.65;;;2.50;;
56201;SDS011;42117;50.360;3.508;2023-06-26T14:55:48;2.40;;;2.30;;